Time,TemperatureF,DewpointF,PressureIn,WindDirection,WindDirectionDegrees,WindSpeedMPH,WindSpeedGustMPH,Humidity,HourlyPrecipIn,Conditions,Clouds,dailyrainin,SoftwareType,DateUTC
2013-03-11 00:00:00,30.0,27.2,30.42,NNE,22,0.0,0.0,89,0.00,,,0.00,Weather View 32 v70,2013-03-11 08:00:00,
2013-03-11 00:05:00,30.0,27.2,30.43,NNE,22,0.0,0.0,89,0.00,,,0.00,Weather View 32 v70,2013-03-11 08:05:00,
2013-03-11 00:10:00,30.0,27.2,30.43,NNE,22,0.0,0.0,89,0.00,,,0.00,Weather View 32 v70,2013-03-11 08:10:00,
2013-03-11 00:15:00,30.0,27.2,30.43,NNE,22,0.0,0.0,89,0.00,,,0.00,Weather View 32 v70,2013-03-11 08:15:00,
2013-03-11 00:20:00,30.0,27.2,30.43,NNE,22,0.0,0.0,89,0.00,,,0.00,Weather View 32 v70,2013-03-11 08:20:00,
2013-03-11 00:25:00,30.4,27.5,30.43,NNE,22,0.0,0.0,89,0.00,,,0.00,Weather View 32 v70,2013-03-11 08:25:00,
2013-03-11 00:30:00,30.4,27.5,30.43,NNE,22,0.0,0.0,89,0.00,,,0.00,Weather View 32 v70,2013-03-11 08:30:00,
2013-03-11 00:35:00,30.4,27.5,30.43,NNE,22,0.0,0.0,89,0.00,,,0.00,Weather View 32 v70,2013-03-11 08:35:00,
2013-03-11 00:40:00,30.4,27.5,30.43,NNE,22,0.0,0.0,89,0.00,,,0.00,Weather View 32 v70,2013-03-11 08:40:00,
2013-03-11 00:45:00,30.4,27.5,30.43,NNE,22,0.0,0.0,89,0.00,,,0.00,Weather View 32 v70,2013-03-11 08:45:00,
2013-03-11 00:50:00,30.2,27.3,30.43,NNE,22,0.0,0.0,89,0.00,,,0.00,Weather View 32 v70,2013-03-11 08:50:00,
2013-03-11 00:55:00,30.2,27.3,30.43,NNE,22,0.0,0.0,89,0.00,,,0.00,Weather View 32 v70,2013-03-11 08:55:00,
2013-03-11 01:00:00,30.2,27.3,30.43,NNE,22,0.0,0.0,89,0.00,,,0.00,Weather View 32 v70,2013-03-11 09:00:00,
2013-03-11 01:05:00,30.4,27.5,30.45,NNE,22,0.0,0.0,89,0.00,,,0.00,Weather View 32 v70,2013-03-11 09:05:00,
2013-03-11 01:10:00,30.4,27.5,30.45,NNE,22,0.0,0.0,89,0.00,,,0.00,Weather View 32 v70,2013-03-11 09:10:00,
2013-03-11 01:15:00,30.4,27.5,30.45,NNE,22,0.0,0.0,89,0.00,,,0.00,Weather View 32 v70,2013-03-11 09:15:00,
2013-03-11 01:20:00,30.4,27.5,30.45,NNE,22,0.0,0.0,89,0.00,,,0.00,Weather View 32 v70,2013-03-11 09:20:00,
2013-03-11 01:25:00,30.4,27.5,30.45,NNE,22,0.0,0.0,89,0.00,,,0.00,Weather View 32 v70,2013-03-11 09:25:00,
2013-03-11 01:30:00,30.4,27.5,30.45,NNE,22,0.0,0.0,89,0.00,,,0.00,Weather View 32 v70,2013-03-11 09:30:00,
2013-03-11 01:35:00,30.4,27.5,30.45,NNE,22,0.0,0.0,89,0.00,,,0.00,Weather View 32 v70,2013-03-11 09:35:00,
2013-03-11 01:40:00,30.4,27.5,30.45,NNE,22,0.0,0.0,89,0.00,,,0.00,Weather View 32 v70,2013-03-11 09:40:00,
2013-03-11 01:45:00,30.4,27.5,30.45,NNE,22,0.0,0.0,89,0.00,,,0.00,Weather View 32 v70,2013-03-11 09:45:00,
2013-03-11 01:50:00,30.4,27.5,30.45,NNE,22,0.0,0.0,89,0.00,,,0.00,Weather View 32 v70,2013-03-11 09:50:00,
2013-03-11 01:55:00,30.4,27.5,30.45,NNE,22,0.0,0.0,89,0.00,,,0.00,Weather View 32 v70,2013-03-11 09:55:00,
2013-03-11 02:00:00,30.4,27.5,30.45,NNE,22,0.0,0.0,89,0.00,,,0.00,Weather View 32 v70,2013-03-11 10:00:00,
2013-03-11 02:05:00,30.4,27.5,30.46,NNE,22,0.0,0.0,89,0.00,,,0.00,Weather View 32 v70,2013-03-11 10:05:00,
2013-03-11 02:10:00,30.4,27.5,30.46,NNE,22,0.0,0.0,89,0.00,,,0.00,Weather View 32 v70,2013-03-11 10:10:00,
2013-03-11 02:15:00,30.4,27.5,30.46,NNE,22,0.0,0.0,89,0.00,,,0.00,Weather View 32 v70,2013-03-11 10:15:00,
2013-03-11 02:20:00,30.4,27.5,30.46,NNE,22,0.0,0.0,89,0.00,,,0.00,Weather View 32 v70,2013-03-11 10:20:00,
2013-03-11 02:25:00,30.4,27.5,30.46,NNE,22,0.0,0.0,89,0.00,,,0.00,Weather View 32 v70,2013-03-11 10:25:00,
2013-03-11 02:30:00,30.2,27.6,30.46,NNE,22,0.0,0.0,90,0.00,,,0.00,Weather View 32 v70,2013-03-11 10:30:00,
2013-03-11 02:35:00,30.2,27.3,30.46,NNE,22,0.0,0.0,89,0.00,,,0.00,Weather View 32 v70,2013-03-11 10:35:00,
2013-03-11 02:40:00,30.2,27.3,30.46,NNE,22,0.0,0.0,89,0.00,,,0.00,Weather View 32 v70,2013-03-11 10:40:00,
2013-03-11 02:45:00,30.4,27.5,30.46,NNE,22,0.0,0.0,89,0.00,,,0.00,Weather View 32 v70,2013-03-11 10:45:00,
2013-03-11 02:50:00,30.4,27.5,30.46,NNE,22,0.0,0.0,89,0.00,,,0.00,Weather View 32 v70,2013-03-11 10:50:00,
2013-03-11 02:56:00,30.4,27.5,30.46,NNE,22,0.0,0.0,89,0.00,,,0.00,Weather View 32 v70,2013-03-11 10:56:00,
2013-03-11 03:01:00,30.4,27.5,30.46,NNE,22,0.0,0.0,89,0.00,,,0.00,Weather View 32 v70,2013-03-11 11:01:00,
2013-03-11 03:06:00,30.0,27.2,30.47,NNE,22,0.0,0.0,89,0.00,,,0.00,Weather View 32 v70,2013-03-11 11:06:00,
2013-03-11 03:11:00,30.0,27.2,30.47,NNE,22,0.0,0.0,89,0.00,,,0.00,Weather View 32 v70,2013-03-11 11:11:00,
2013-03-11 03:16:00,30.0,27.2,30.47,NNE,22,0.0,0.0,89,0.00,,,0.00,Weather View 32 v70,2013-03-11 11:16:00,
2013-03-11 03:22:00,30.0,27.2,30.47,NNE,22,0.0,0.0,89,0.00,,,0.00,Weather View 32 v70,2013-03-11 11:22:00,
2013-03-11 03:27:00,30.0,27.2,30.46,NNE,22,0.0,0.0,89,0.00,,,0.00,Weather View 32 v70,2013-03-11 11:27:00,
2013-03-11 03:32:00,30.0,27.2,30.46,NNE,22,0.0,0.0,89,0.00,,,0.00,Weather View 32 v70,2013-03-11 11:32:00,
2013-03-11 03:37:00,29.8,27.0,30.46,NNE,22,0.0,0.0,89,0.00,,,0.00,Weather View 32 v70,2013-03-11 11:37:00,
2013-03-11 03:42:00,29.8,27.0,30.46,NNE,22,0.0,0.0,89,0.00,,,0.00,Weather View 32 v70,2013-03-11 11:42:00,
2013-03-11 03:47:00,29.8,27.0,30.47,NNE,22,0.0,0.0,89,0.00,,,0.00,Weather View 32 v70,2013-03-11 11:47:00,
2013-03-11 03:52:00,29.8,27.0,30.47,NNE,22,0.0,0.0,89,0.00,,,0.00,Weather View 32 v70,2013-03-11 11:52:00,
2013-03-11 03:57:00,30.0,27.2,30.47,NNE,22,0.0,0.0,89,0.00,,,0.00,Weather View 32 v70,2013-03-11 11:57:00,
2013-03-11 04:02:00,30.0,27.2,30.47,NNE,22,0.0,0.0,89,0.00,,,0.00,Weather View 32 v70,2013-03-11 12:02:00,
2013-03-11 04:07:00,30.0,27.2,30.47,NNE,22,0.0,0.0,89,0.00,,,0.00,Weather View 32 v70,2013-03-11 12:07:00,
2013-03-11 04:12:00,30.0,27.2,30.47,NNE,22,0.0,0.0,89,0.00,,,0.00,Weather View 32 v70,2013-03-11 12:12:00,
2013-03-11 04:17:00,29.7,26.8,30.47,NNE,22,0.0,0.0,89,0.00,,,0.00,Weather View 32 v70,2013-03-11 12:17:00,
2013-03-11 04:22:00,29.7,26.8,30.47,NNE,22,0.0,0.0,89,0.00,,,0.00,Weather View 32 v70,2013-03-11 12:22:00,
2013-03-11 04:27:00,29.7,26.8,30.47,NNE,22,0.0,0.0,89,0.00,,,0.00,Weather View 32 v70,2013-03-11 12:27:00,
2013-03-11 04:32:00,29.7,26.8,30.47,NNE,22,0.0,0.0,89,0.00,,,0.00,Weather View 32 v70,2013-03-11 12:32:00,
2013-03-11 04:37:00,29.7,27.1,30.47,NNE,22,0.0,0.0,90,0.00,,,0.00,Weather View 32 v70,2013-03-11 12:37:00,
2013-03-11 04:42:00,29.7,27.1,30.47,NNE,22,0.0,0.0,90,0.00,,,0.00,Weather View 32 v70,2013-03-11 12:42:00,
2013-03-11 04:47:00,29.7,27.1,30.47,NNE,22,0.0,0.0,90,0.00,,,0.00,Weather View 32 v70,2013-03-11 12:47:00,
2013-03-11 04:52:00,29.7,27.1,30.47,NNE,22,0.0,0.0,90,0.00,,,0.00,Weather View 32 v70,2013-03-11 12:52:00,
2013-03-11 04:57:00,29.7,27.1,30.47,NNE,22,0.0,0.0,90,0.00,,,0.00,Weather View 32 v70,2013-03-11 12:57:00,
2013-03-11 05:02:00,29.7,27.1,30.47,NNE,22,0.0,0.0,90,0.00,,,0.00,Weather View 32 v70,2013-03-11 13:02:00,
2013-03-11 05:07:00,29.7,27.1,30.47,NNE,22,0.0,0.0,90,0.00,,,0.00,Weather View 32 v70,2013-03-11 13:07:00,
2013-03-11 05:12:00,29.7,27.1,30.47,NNE,22,0.0,0.0,90,0.00,,,0.00,Weather View 32 v70,2013-03-11 13:12:00,
2013-03-11 05:17:00,29.7,27.1,30.47,NNE,22,0.0,0.0,90,0.00,,,0.00,Weather View 32 v70,2013-03-11 13:17:00,
2013-03-11 05:22:00,29.7,26.8,30.47,NNE,22,0.0,0.0,89,0.00,,,0.00,Weather View 32 v70,2013-03-11 13:22:00,
2013-03-11 05:27:00,29.3,26.7,30.47,NNE,22,0.0,0.0,90,0.00,,,0.00,Weather View 32 v70,2013-03-11 13:27:00,
2013-03-11 05:32:00,29.3,26.5,30.47,NNE,22,0.0,0.0,89,0.00,,,0.00,Weather View 32 v70,2013-03-11 13:32:00,
2013-03-11 05:37:00,29.3,26.5,30.47,NNE,22,0.0,0.0,89,0.00,,,0.00,Weather View 32 v70,2013-03-11 13:37:00,
2013-03-11 05:42:00,29.3,26.5,30.47,NNE,22,0.0,0.0,89,0.00,,,0.00,Weather View 32 v70,2013-03-11 13:42:00,
2013-03-11 05:47:00,29.1,26.3,30.47,NNE,22,0.0,0.0,89,0.00,,,0.00,Weather View 32 v70,2013-03-11 13:47:00,
2013-03-11 05:52:00,29.1,26.3,30.47,NNE,22,0.0,0.0,89,0.00,,,0.00,Weather View 32 v70,2013-03-11 13:52:00,
2013-03-11 05:57:00,28.9,26.1,30.47,NNE,22,0.0,0.0,89,0.00,,,0.00,Weather View 32 v70,2013-03-11 13:57:00,
2013-03-11 06:02:00,28.9,26.1,30.47,NNE,22,0.0,0.0,89,0.00,,,0.00,Weather View 32 v70,2013-03-11 14:02:00,
2013-03-11 06:07:00,28.9,26.1,30.47,NNE,22,0.0,0.0,89,0.00,,,0.00,Weather View 32 v70,2013-03-11 14:07:00,
2013-03-11 06:12:00,28.2,25.4,30.47,NNE,22,0.0,0.0,89,0.00,,,0.00,Weather View 32 v70,2013-03-11 14:12:00,
2013-03-11 06:17:00,27.9,25.0,30.47,NNE,22,0.0,0.0,89,0.00,,,0.00,Weather View 32 v70,2013-03-11 14:17:00,
2013-03-11 06:22:00,27.5,24.7,30.47,NNE,22,0.0,0.0,89,0.00,,,0.00,Weather View 32 v70,2013-03-11 14:22:00,
2013-03-11 06:27:00,27.5,24.7,30.47,NNE,22,0.0,0.0,89,0.00,,,0.00,Weather View 32 v70,2013-03-11 14:27:00,
2013-03-11 06:32:00,27.1,24.3,30.47,NNE,22,0.0,0.0,89,0.00,,,0.00,Weather View 32 v70,2013-03-11 14:32:00,
2013-03-11 06:38:00,27.0,24.2,30.47,NNE,22,0.0,0.0,89,0.00,,,0.00,Weather View 32 v70,2013-03-11 14:38:00,
2013-03-11 06:42:00,26.8,24.0,30.47,NNE,22,0.0,0.0,89,0.00,,,0.00,Weather View 32 v70,2013-03-11 14:42:00,
2013-03-11 06:47:00,26.4,23.6,30.47,NNE,22,0.0,0.0,89,0.00,,,0.00,Weather View 32 v70,2013-03-11 14:47:00,
2013-03-11 06:52:00,26.4,23.6,30.47,NNE,22,0.0,0.0,89,0.00,,,0.00,Weather View 32 v70,2013-03-11 14:52:00,
2013-03-11 06:57:00,26.2,23.4,30.47,NNE,22,0.0,0.0,89,0.00,,,0.00,Weather View 32 v70,2013-03-11 14:57:00,
2013-03-11 07:02:00,26.1,23.3,30.47,NNE,22,0.0,0.0,89,0.00,,,0.00,Weather View 32 v70,2013-03-11 15:02:00,
2013-03-11 07:07:00,26.1,23.3,30.47,NNE,22,0.0,0.0,89,0.00,,,0.00,Weather View 32 v70,2013-03-11 15:07:00,
2013-03-11 07:12:00,26.1,23.3,30.47,NNE,22,0.0,0.0,89,0.00,,,0.00,Weather View 32 v70,2013-03-11 15:12:00,
2013-03-11 07:18:00,25.7,23.2,30.47,NNE,22,0.0,0.0,90,0.00,,,0.00,Weather View 32 v70,2013-03-11 15:18:00,
2013-03-11 07:23:00,26.1,23.5,30.47,NNE,22,0.0,0.0,90,0.00,,,0.00,Weather View 32 v70,2013-03-11 15:23:00,
2013-03-11 07:28:00,26.1,23.5,30.48,NNE,22,0.0,0.0,90,0.00,,,0.00,Weather View 32 v70,2013-03-11 15:28:00,
2013-03-11 07:33:00,26.1,23.5,30.48,NNE,22,0.0,0.0,90,0.00,,,0.00,Weather View 32 v70,2013-03-11 15:33:00,
2013-03-11 07:38:00,25.5,23.0,30.48,NNE,22,0.0,0.0,90,0.00,,,0.00,Weather View 32 v70,2013-03-11 15:38:00,
2013-03-11 07:42:00,25.2,22.6,30.48,NNE,22,0.0,0.0,90,0.00,,,0.00,Weather View 32 v70,2013-03-11 15:42:00,
2013-03-11 07:47:00,25.0,22.5,30.48,NNE,22,0.0,0.0,90,0.00,,,0.00,Weather View 32 v70,2013-03-11 15:47:00,
2013-03-11 07:53:00,24.6,22.1,30.48,NNE,22,0.0,0.0,90,0.00,,,0.00,Weather View 32 v70,2013-03-11 15:53:00,
2013-03-11 07:58:00,24.6,22.1,30.48,NNE,22,0.0,0.0,90,0.00,,,0.00,Weather View 32 v70,2013-03-11 15:58:00,
2013-03-11 08:03:00,24.6,22.1,30.48,NNE,22,0.0,0.0,90,0.00,,,0.00,Weather View 32 v70,2013-03-11 16:03:00,
2013-03-11 08:08:00,23.9,21.1,30.48,NNE,22,0.0,0.0,89,0.00,,,0.00,Weather View 32 v70,2013-03-11 16:08:00,
2013-03-11 08:13:00,23.9,21.1,30.48,NNE,22,0.0,0.0,89,0.00,,,0.00,Weather View 32 v70,2013-03-11 16:13:00,
2013-03-11 08:18:00,23.9,21.1,30.48,NNE,22,0.0,0.0,89,0.00,,,0.00,Weather View 32 v70,2013-03-11 16:18:00,
2013-03-11 08:23:00,23.4,20.6,30.48,NNE,22,0.0,0.0,89,0.00,,,0.00,Weather View 32 v70,2013-03-11 16:23:00,
2013-03-11 08:28:00,23.2,20.7,30.49,NNE,22,0.0,0.0,90,0.00,,,0.00,Weather View 32 v70,2013-03-11 16:28:00,
2013-03-11 08:33:00,23.2,20.4,30.49,NNE,22,0.0,0.0,89,0.00,,,0.00,Weather View 32 v70,2013-03-11 16:33:00,
2013-03-11 08:38:00,22.6,20.2,30.49,NNE,22,0.0,0.0,90,0.00,,,0.00,Weather View 32 v70,2013-03-11 16:38:00,
2013-03-11 08:43:00,22.5,19.7,30.49,NNE,22,0.0,0.0,89,0.00,,,0.00,Weather View 32 v70,2013-03-11 16:43:00,
2013-03-11 08:48:00,22.5,20.0,30.52,NNE,22,0.0,0.0,90,0.00,,,0.00,Weather View 32 v70,2013-03-11 16:48:00,
2013-03-11 08:53:00,22.5,19.7,30.52,NNE,22,0.0,0.0,89,0.00,,,0.00,Weather View 32 v70,2013-03-11 16:53:00,
2013-03-11 08:58:00,21.9,19.2,30.52,NNE,22,0.0,0.0,89,0.00,,,0.00,Weather View 32 v70,2013-03-11 16:58:00,
2013-03-11 09:03:00,21.9,19.2,30.52,NNE,22,0.0,0.0,89,0.00,,,0.00,Weather View 32 v70,2013-03-11 17:03:00,
2013-03-11 09:08:00,21.6,18.8,30.54,NNE,22,0.0,0.0,89,0.00,,,0.00,Weather View 32 v70,2013-03-11 17:08:00,
2013-03-11 09:13:00,21.4,18.6,30.54,NNE,22,0.0,0.0,89,0.00,,,0.00,Weather View 32 v70,2013-03-11 17:13:00,
2013-03-11 09:18:00,21.2,18.5,30.54,NNE,22,0.0,0.0,89,0.00,,,0.00,Weather View 32 v70,2013-03-11 17:18:00,
2013-03-11 09:23:00,21.0,18.3,30.54,NNE,22,0.0,0.0,89,0.00,,,0.00,Weather View 32 v70,2013-03-11 17:23:00,
2013-03-11 09:28:00,21.2,18.5,30.55,NNE,22,0.0,0.0,89,0.00,,,0.00,Weather View 32 v70,2013-03-11 17:28:00,
2013-03-11 09:33:00,21.7,19.0,30.55,NNE,22,0.0,0.0,89,0.00,,,0.00,Weather View 32 v70,2013-03-11 17:33:00,
2013-03-11 09:38:00,21.7,19.0,30.55,NNE,22,0.0,0.0,89,0.00,,,0.00,Weather View 32 v70,2013-03-11 17:38:00,
2013-03-11 09:43:00,21.6,18.8,30.57,NNE,22,0.0,0.0,89,0.00,,,0.00,Weather View 32 v70,2013-03-11 17:43:00,
2013-03-11 09:48:00,21.6,18.8,30.57,NNE,22,0.0,0.0,89,0.00,,,0.00,Weather View 32 v70,2013-03-11 17:48:00,
2013-03-11 09:53:00,22.5,19.7,30.57,NNE,22,0.0,0.0,89,0.00,,,0.00,Weather View 32 v70,2013-03-11 17:53:00,
2013-03-11 09:58:00,22.5,19.7,30.57,NNE,22,0.0,0.0,89,0.00,,,0.00,Weather View 32 v70,2013-03-11 17:58:00,
2013-03-11 10:03:00,25.0,22.2,30.57,NNE,22,0.0,0.0,89,0.00,,,0.00,Weather View 32 v70,2013-03-11 18:03:00,
2013-03-11 10:08:00,24.6,21.8,30.57,NNE,22,0.0,0.0,89,0.00,,,0.00,Weather View 32 v70,2013-03-11 18:08:00,
2013-03-11 10:13:00,23.9,20.9,30.57,NNE,22,0.0,0.0,88,0.00,,,0.00,Weather View 32 v70,2013-03-11 18:13:00,
2013-03-11 10:18:00,23.9,21.1,30.57,NNE,22,0.0,0.0,89,0.00,,,0.00,Weather View 32 v70,2013-03-11 18:18:00,
2013-03-11 10:23:00,23.9,21.1,30.57,NNE,22,0.0,0.0,89,0.00,,,0.00,Weather View 32 v70,2013-03-11 18:23:00,
2013-03-11 10:28:00,24.3,21.5,30.54,NNE,22,0.0,0.0,89,0.00,,,0.00,Weather View 32 v70,2013-03-11 18:28:00,
2013-03-11 10:33:00,24.6,21.8,30.54,NNE,22,0.0,0.0,89,0.00,,,0.00,Weather View 32 v70,2013-03-11 18:33:00,
2013-03-11 10:38:00,24.8,22.0,30.54,NNE,22,0.0,0.0,89,0.00,,,0.00,Weather View 32 v70,2013-03-11 18:38:00,
2013-03-11 10:43:00,25.3,22.6,30.54,NNE,22,0.0,0.0,89,0.00,,,0.00,Weather View 32 v70,2013-03-11 18:43:00,
2013-03-11 10:48:00,26.1,23.3,30.55,NNE,22,0.0,0.0,89,0.00,,,0.00,Weather View 32 v70,2013-03-11 18:48:00,
2013-03-11 10:53:00,26.1,23.3,30.55,NNE,22,0.0,0.0,89,0.00,,,0.00,Weather View 32 v70,2013-03-11 18:53:00,
2013-03-11 10:58:00,26.4,23.6,30.55,NNE,22,0.0,0.0,89,0.00,,,0.00,Weather View 32 v70,2013-03-11 18:58:00,
2013-03-11 11:03:00,27.1,24.3,30.55,NNE,22,0.0,0.0,89,0.00,,,0.00,Weather View 32 v70,2013-03-11 19:03:00,
2013-03-11 11:08:00,27.9,25.0,30.55,NNE,22,0.0,0.0,89,0.00,,,0.00,Weather View 32 v70,2013-03-11 19:08:00,
2013-03-11 11:13:00,28.9,25.8,30.55,NNE,22,0.0,0.0,88,0.00,,,0.00,Weather View 32 v70,2013-03-11 19:13:00,
2013-03-11 11:18:00,30.6,27.2,30.55,NNE,22,0.0,0.0,87,0.00,,,0.00,Weather View 32 v70,2013-03-11 19:18:00,
2013-03-11 11:23:00,31.1,27.1,30.55,NNE,22,0.0,0.0,85,0.00,,,0.00,Weather View 32 v70,2013-03-11 19:23:00,
2013-03-11 11:28:00,31.8,27.5,30.54,NNE,22,0.0,0.0,84,0.00,,,0.00,Weather View 32 v70,2013-03-11 19:28:00,
2013-03-11 11:33:00,34.7,29.2,30.54,NNE,22,0.0,0.0,80,0.00,,,0.00,Weather View 32 v70,2013-03-11 19:33:00,
2013-03-11 11:38:00,34.0,28.2,30.54,NNE,22,0.0,0.0,79,0.00,,,0.00,Weather View 32 v70,2013-03-11 19:38:00,
2013-03-11 11:43:00,34.0,27.8,30.53,NNE,22,0.0,0.0,78,0.00,,,0.00,Weather View 32 v70,2013-03-11 19:43:00,
2013-03-11 11:48:00,33.3,26.8,30.53,NNE,22,0.0,0.0,77,0.00,,,0.00,Weather View 32 v70,2013-03-11 19:48:00,
2013-03-11 11:53:00,32.5,26.1,30.53,NNE,22,0.0,0.0,77,0.00,,,0.00,Weather View 32 v70,2013-03-11 19:53:00,
2013-03-11 11:58:00,32.5,25.8,30.53,NNE,22,0.0,0.0,76,0.00,,,0.00,Weather View 32 v70,2013-03-11 19:58:00,
2013-03-11 12:03:00,33.4,26.4,30.51,NNE,22,0.0,0.0,75,0.00,,,0.00,Weather View 32 v70,2013-03-11 20:03:00,
2013-03-11 12:08:00,34.0,26.9,30.51,NNE,22,0.0,0.0,75,0.00,,,0.00,Weather View 32 v70,2013-03-11 20:08:00,
2013-03-11 12:13:00,36.5,28.3,30.51,NNE,22,0.0,0.0,72,0.00,,,0.00,Weather View 32 v70,2013-03-11 20:13:00,
2013-03-11 12:18:00,35.2,27.1,30.51,NNE,22,0.0,0.0,72,0.00,,,0.00,Weather View 32 v70,2013-03-11 20:18:00,
2013-03-11 12:23:00,36.5,27.6,30.51,NNE,22,0.0,0.0,70,0.00,,,0.00,Weather View 32 v70,2013-03-11 20:23:00,
2013-03-11 12:28:00,36.9,28.0,30.51,NNE,22,0.0,0.0,70,0.00,,,0.00,Weather View 32 v70,2013-03-11 20:28:00,
2013-03-11 12:33:00,35.6,26.8,30.51,NNE,22,0.0,0.0,70,0.00,,,0.00,Weather View 32 v70,2013-03-11 20:33:00,
2013-03-11 12:38:00,35.4,26.6,30.51,NNE,22,0.0,0.0,70,0.00,,,0.00,Weather View 32 v70,2013-03-11 20:38:00,
2013-03-11 12:43:00,38.5,29.5,30.51,NNE,22,0.0,0.0,70,0.00,,,0.00,Weather View 32 v70,2013-03-11 20:43:00,
2013-03-11 12:48:00,47.1,32.6,30.52,NNE,22,0.0,0.0,57,0.00,,,0.00,Weather View 32 v70,2013-03-11 20:48:00,
2013-03-11 12:53:00,49.5,33.9,30.52,NNE,22,0.0,0.0,55,0.00,,,0.00,Weather View 32 v70,2013-03-11 20:53:00,
2013-03-11 12:58:00,50.5,30.5,30.52,NNE,22,0.0,0.0,46,0.00,,,0.00,Weather View 32 v70,2013-03-11 20:58:00,
2013-03-11 13:03:00,52.2,32.5,30.52,NNE,22,0.0,0.0,47,0.00,,,0.00,Weather View 32 v70,2013-03-11 21:03:00,
2013-03-11 13:08:00,52.7,32.5,30.52,NNE,22,0.0,0.0,46,0.00,,,0.00,Weather View 32 v70,2013-03-11 21:08:00,
2013-03-11 13:13:00,57.4,33.2,30.52,NNE,22,0.0,0.0,40,0.00,,,0.00,Weather View 32 v70,2013-03-11 21:13:00,
2013-03-11 13:18:00,58.5,34.2,30.52,NNE,22,0.0,0.0,40,0.00,,,0.00,Weather View 32 v70,2013-03-11 21:18:00,
2013-03-11 13:23:00,59.9,33.5,30.52,NNE,22,0.0,0.0,37,0.00,,,0.00,Weather View 32 v70,2013-03-11 21:23:00,
2013-03-11 13:28:00,60.6,31.3,30.52,NNE,22,0.0,0.0,33,0.00,,,0.00,Weather View 32 v70,2013-03-11 21:28:00,
2013-03-11 13:33:00,58.8,30.5,30.52,NNE,22,0.0,0.0,34,0.00,,,0.00,Weather View 32 v70,2013-03-11 21:33:00,
2013-03-11 13:38:00,59.9,29.9,30.52,NNE,22,0.0,0.0,32,0.00,,,0.00,Weather View 32 v70,2013-03-11 21:38:00,
2013-03-11 13:43:00,62.4,33.6,30.52,NNE,22,0.0,0.0,34,0.00,,,0.00,Weather View 32 v70,2013-03-11 21:43:00,
2013-03-11 13:48:00,61.9,31.6,30.52,NNE,22,0.0,0.0,32,0.00,,,0.00,Weather View 32 v70,2013-03-11 21:48:00,
2013-03-11 13:53:00,61.5,29.7,30.52,NNE,22,0.0,0.0,30,0.00,,,0.00,Weather View 32 v70,2013-03-11 21:53:00,
2013-03-11 13:58:00,61.3,31.2,30.52,NNE,22,0.0,0.0,32,0.00,,,0.00,Weather View 32 v70,2013-03-11 21:58:00,
2013-03-11 14:03:00,62.4,30.5,30.52,NNE,22,0.0,0.0,30,0.00,,,0.00,Weather View 32 v70,2013-03-11 22:03:00,
2013-03-11 14:08:00,62.8,30.0,30.52,NNE,22,0.0,0.0,29,0.00,,,0.00,Weather View 32 v70,2013-03-11 22:08:00,
2013-03-11 14:13:00,61.7,29.1,30.52,NNE,22,0.0,0.0,29,0.00,,,0.00,Weather View 32 v70,2013-03-11 22:13:00,
2013-03-11 14:18:00,62.4,29.7,30.52,NNE,22,0.0,0.0,29,0.00,,,0.00,Weather View 32 v70,2013-03-11 22:18:00,
2013-03-11 14:23:00,61.3,28.7,30.51,NNE,22,0.0,0.0,29,0.00,,,0.00,Weather View 32 v70,2013-03-11 22:23:00,
2013-03-11 14:28:00,61.3,28.7,30.51,NNE,22,0.0,0.0,29,0.00,,,0.00,Weather View 32 v70,2013-03-11 22:28:00,
2013-03-11 14:33:00,60.8,29.1,30.51,NNE,22,0.0,0.0,30,0.00,,,0.00,Weather View 32 v70,2013-03-11 22:33:00,
2013-03-11 14:38:00,61.5,28.9,30.51,NNE,22,0.0,0.0,29,0.00,,,0.00,Weather View 32 v70,2013-03-11 22:38:00,
2013-03-11 14:43:00,60.3,28.6,30.51,NNE,22,0.0,0.0,30,0.00,,,0.00,Weather View 32 v70,2013-03-11 22:43:00,
2013-03-11 14:48:00,59.4,27.9,30.51,NNE,22,0.0,0.0,30,0.00,,,0.00,Weather View 32 v70,2013-03-11 22:48:00,
2013-03-11 14:53:00,57.2,26.8,30.51,NNE,22,0.0,0.0,31,0.00,,,0.00,Weather View 32 v70,2013-03-11 22:53:00,
2013-03-11 14:58:00,49.3,24.1,30.51,NNE,22,0.0,0.0,37,0.00,,,0.00,Weather View 32 v70,2013-03-11 22:58:00,
2013-03-11 15:03:00,46.0,24.2,30.51,NNE,22,0.0,0.0,42,0.00,,,0.00,Weather View 32 v70,2013-03-11 23:03:00,
2013-03-11 15:08:00,44.1,24.6,30.51,NNE,22,0.0,0.0,46,0.00,,,0.00,Weather View 32 v70,2013-03-11 23:08:00,
2013-03-11 15:13:00,42.6,24.3,30.51,NNE,22,0.0,0.0,48,0.00,,,0.00,Weather View 32 v70,2013-03-11 23:13:00,
2013-03-11 15:18:00,40.8,24.1,30.51,NNE,22,0.0,0.0,51,0.00,,,0.00,Weather View 32 v70,2013-03-11 23:18:00,
2013-03-11 15:23:00,39.7,23.5,30.51,NNE,22,0.0,0.0,52,0.00,,,0.00,Weather View 32 v70,2013-03-11 23:23:00,
2013-03-11 15:28:00,39.4,24.1,30.51,NNE,22,0.0,0.0,54,0.00,,,0.00,Weather View 32 v70,2013-03-11 23:28:00,
2013-03-11 15:33:00,38.7,23.4,30.51,NNE,22,0.0,0.0,54,0.00,,,0.00,Weather View 32 v70,2013-03-11 23:33:00,
2013-03-11 15:38:00,38.3,23.5,30.51,NNE,22,0.0,0.0,55,0.00,,,0.00,Weather View 32 v70,2013-03-11 23:38:00,
2013-03-11 15:43:00,37.8,23.0,30.51,NNE,22,0.0,0.0,55,0.00,,,0.00,Weather View 32 v70,2013-03-11 23:43:00,
2013-03-11 15:48:00,37.4,22.7,30.49,NNE,22,0.0,0.0,55,0.00,,,0.00,Weather View 32 v70,2013-03-11 23:48:00,
2013-03-11 15:53:00,37.0,21.9,30.49,NNE,22,0.0,0.0,54,0.00,,,0.00,Weather View 32 v70,2013-03-11 23:53:00,
2013-03-11 15:58:00,36.9,21.8,30.49,NNE,22,0.0,0.0,54,0.00,,,0.00,Weather View 32 v70,2013-03-11 23:58:00,
2013-03-11 16:03:00,36.9,22.6,30.50,NNE,22,0.0,0.0,56,0.00,,,0.00,Weather View 32 v70,2013-03-12 00:03:00,
2013-03-11 16:08:00,36.9,22.6,30.50,NNE,22,0.0,0.0,56,0.00,,,0.00,Weather View 32 v70,2013-03-12 00:08:00,
2013-03-11 16:13:00,36.9,22.2,30.50,NNE,22,0.0,0.0,55,0.00,,,0.00,Weather View 32 v70,2013-03-12 00:13:00,
2013-03-11 16:18:00,36.5,21.9,30.50,NNE,22,0.0,0.0,55,0.00,,,0.00,Weather View 32 v70,2013-03-12 00:18:00,
2013-03-11 16:23:00,36.5,21.9,30.49,NNE,22,0.0,0.0,55,0.00,,,0.00,Weather View 32 v70,2013-03-12 00:23:00,
2013-03-11 16:28:00,36.5,21.9,30.49,NNE,22,0.0,0.0,55,0.00,,,0.00,Weather View 32 v70,2013-03-12 00:28:00,
2013-03-11 16:33:00,36.1,21.5,30.49,NNE,22,0.0,0.0,55,0.00,,,0.00,Weather View 32 v70,2013-03-12 00:33:00,
2013-03-11 16:38:00,36.3,21.7,30.49,NNE,22,0.0,0.0,55,0.00,,,0.00,Weather View 32 v70,2013-03-12 00:38:00,
2013-03-11 16:43:00,36.3,21.2,30.49,NNE,22,0.0,0.0,54,0.00,,,0.00,Weather View 32 v70,2013-03-12 00:43:00,
2013-03-11 16:48:00,36.3,21.7,30.49,NNE,22,0.0,0.0,55,0.00,,,0.00,Weather View 32 v70,2013-03-12 00:48:00,
2013-03-11 16:53:00,36.3,21.7,30.49,NNE,22,0.0,0.0,55,0.00,,,0.00,Weather View 32 v70,2013-03-12 00:53:00,
2013-03-11 16:58:00,36.5,21.9,30.49,NNE,22,0.0,0.0,55,0.00,,,0.00,Weather View 32 v70,2013-03-12 00:58:00,
2013-03-11 17:03:00,36.5,21.0,30.49,NNE,22,0.0,0.0,53,0.00,,,0.00,Weather View 32 v70,2013-03-12 01:03:00,
2013-03-11 17:08:00,36.5,20.5,30.49,NNE,22,0.0,0.0,52,0.00,,,0.00,Weather View 32 v70,2013-03-12 01:08:00,
2013-03-11 17:13:00,36.5,20.1,30.49,NNE,22,0.0,0.0,51,0.00,,,0.00,Weather View 32 v70,2013-03-12 01:13:00,
2013-03-11 17:18:00,36.9,20.9,30.49,NNE,22,0.0,0.0,52,0.00,,,0.00,Weather View 32 v70,2013-03-12 01:18:00,
2013-03-11 17:23:00,36.9,20.9,30.49,NNE,22,0.0,0.0,52,0.00,,,0.00,Weather View 32 v70,2013-03-12 01:23:00,
2013-03-11 17:28:00,36.9,20.9,30.48,NNE,22,0.0,0.0,52,0.00,,,0.00,Weather View 32 v70,2013-03-12 01:28:00,
2013-03-11 17:33:00,36.7,20.7,30.48,NNE,22,0.0,0.0,52,0.00,,,0.00,Weather View 32 v70,2013-03-12 01:33:00,
2013-03-11 17:38:00,36.9,20.4,30.48,NNE,22,0.0,0.0,51,0.00,,,0.00,Weather View 32 v70,2013-03-12 01:38:00,
2013-03-11 17:43:00,36.9,20.4,30.48,NNE,22,0.0,0.0,51,0.00,,,0.00,Weather View 32 v70,2013-03-12 01:43:00,
2013-03-11 17:48:00,36.9,20.4,30.47,NNE,22,0.0,0.0,51,0.00,,,0.00,Weather View 32 v70,2013-03-12 01:48:00,
2013-03-11 17:53:00,36.7,20.2,30.47,NNE,22,0.0,0.0,51,0.00,,,0.00,Weather View 32 v70,2013-03-12 01:53:00,
2013-03-11 17:58:00,36.9,20.4,30.47,NNE,22,0.0,0.0,51,0.00,,,0.00,Weather View 32 v70,2013-03-12 01:58:00,
2013-03-11 18:03:00,36.9,20.4,30.47,NNE,22,0.0,0.0,51,0.00,,,0.00,Weather View 32 v70,2013-03-12 02:03:00,
2013-03-11 18:08:00,36.9,20.4,30.47,NNE,22,0.0,0.0,51,0.00,,,0.00,Weather View 32 v70,2013-03-12 02:08:00,
2013-03-11 18:13:00,36.9,20.4,30.47,NNE,22,0.0,0.0,51,0.00,,,0.00,Weather View 32 v70,2013-03-12 02:13:00,
2013-03-11 18:18:00,36.7,20.2,30.47,NNE,22,0.0,0.0,51,0.00,,,0.00,Weather View 32 v70,2013-03-12 02:18:00,
2013-03-11 18:23:00,36.9,19.9,30.47,NNE,22,0.0,0.0,50,0.00,,,0.00,Weather View 32 v70,2013-03-12 02:23:00,
2013-03-11 18:28:00,36.5,19.6,30.47,NNE,22,0.0,0.0,50,0.00,,,0.00,Weather View 32 v70,2013-03-12 02:28:00,
2013-03-11 18:33:00,36.3,19.9,30.47,NNE,22,0.0,0.0,51,0.00,,,0.00,Weather View 32 v70,2013-03-12 02:33:00,
2013-03-11 18:38:00,36.3,19.9,30.47,NNE,22,0.0,0.0,51,0.00,,,0.00,Weather View 32 v70,2013-03-12 02:38:00,
2013-03-11 18:43:00,36.0,19.1,30.47,NNE,22,0.0,0.0,50,0.00,,,0.00,Weather View 32 v70,2013-03-12 02:43:00,
2013-03-11 18:48:00,36.1,19.7,30.47,NNE,22,0.0,0.0,51,0.00,,,0.00,Weather View 32 v70,2013-03-12 02:48:00,
2013-03-11 18:53:00,35.8,19.4,30.47,NNE,22,0.0,0.0,51,0.00,,,0.00,Weather View 32 v70,2013-03-12 02:53:00,
2013-03-11 18:58:00,35.6,19.2,30.47,NNE,22,0.0,0.0,51,0.00,,,0.00,Weather View 32 v70,2013-03-12 02:58:00,
2013-03-11 19:03:00,35.4,18.6,30.47,NNE,22,0.0,0.0,50,0.00,,,0.00,Weather View 32 v70,2013-03-12 03:03:00,
2013-03-11 19:08:00,35.4,19.1,30.47,NNE,22,0.0,0.0,51,0.00,,,0.00,Weather View 32 v70,2013-03-12 03:08:00,
2013-03-11 19:13:00,34.9,19.0,30.47,NNE,22,0.0,0.0,52,0.00,,,0.00,Weather View 32 v70,2013-03-12 03:13:00,
2013-03-11 19:18:00,34.9,19.0,30.47,NNE,22,0.0,0.0,52,0.00,,,0.00,Weather View 32 v70,2013-03-12 03:18:00,
2013-03-11 19:23:00,34.7,18.9,30.46,NNE,22,0.0,0.0,52,0.00,,,0.00,Weather View 32 v70,2013-03-12 03:23:00,
2013-03-11 19:28:00,34.7,18.9,30.46,NNE,22,0.0,0.0,52,0.00,,,0.00,Weather View 32 v70,2013-03-12 03:28:00,
2013-03-11 19:33:00,34.2,18.8,30.46,NNE,22,0.0,0.0,53,0.00,,,0.00,Weather View 32 v70,2013-03-12 03:33:00,
2013-03-11 19:38:00,34.0,18.6,30.46,NNE,22,0.0,0.0,53,0.00,,,0.00,Weather View 32 v70,2013-03-12 03:38:00,
2013-03-11 19:43:00,33.6,18.7,30.46,NNE,22,0.0,0.0,54,0.00,,,0.00,Weather View 32 v70,2013-03-12 03:43:00,
2013-03-11 19:48:00,33.1,18.2,30.46,NNE,22,0.0,0.0,54,0.00,,,0.00,Weather View 32 v70,2013-03-12 03:48:00,
2013-03-11 19:53:00,32.9,18.1,30.46,NNE,22,0.0,0.0,54,0.00,,,0.00,Weather View 32 v70,2013-03-12 03:53:00,
2013-03-11 19:58:00,32.9,18.5,30.46,NNE,22,0.0,0.0,55,0.00,,,0.00,Weather View 32 v70,2013-03-12 03:58:00,
2013-03-11 20:00:00,32.5,18.2,30.46,NNE,22,0.0,0.0,55,0.00,,,0.00,Weather View 32 v70,2013-03-12 04:00:00,
2013-03-11 20:05:00,32.4,18.0,30.46,NNE,22,0.0,0.0,55,0.00,,,0.00,Weather View 32 v70,2013-03-12 04:05:00,
2013-03-11 20:10:00,31.8,17.9,30.46,NNE,22,0.0,0.0,56,0.00,,,0.00,Weather View 32 v70,2013-03-12 04:10:00,
2013-03-11 20:15:00,31.6,17.7,30.46,NNE,22,0.0,0.0,56,0.00,,,0.00,Weather View 32 v70,2013-03-12 04:15:00,
2013-03-11 20:20:00,31.1,17.6,30.46,NNE,22,0.0,0.0,57,0.00,,,0.00,Weather View 32 v70,2013-03-12 04:20:00,
2013-03-11 20:25:00,31.1,18.0,30.46,NNE,22,0.0,0.0,58,0.00,,,0.00,Weather View 32 v70,2013-03-12 04:25:00,
2013-03-11 20:30:00,30.7,18.1,30.43,NNE,22,0.0,0.0,59,0.00,,,0.00,Weather View 32 v70,2013-03-12 04:30:00,
2013-03-11 20:35:00,30.4,17.8,30.43,NNE,22,0.0,0.0,59,0.00,,,0.00,Weather View 32 v70,2013-03-12 04:35:00,
2013-03-11 20:40:00,30.4,17.8,30.43,NNE,22,0.0,0.0,59,0.00,,,0.00,Weather View 32 v70,2013-03-12 04:40:00,
2013-03-11 20:45:00,30.4,17.8,30.43,NNE,22,0.0,0.0,59,0.00,,,0.00,Weather View 32 v70,2013-03-12 04:45:00,
2013-03-11 20:50:00,30.0,17.8,30.43,NNE,22,0.0,0.0,60,0.00,,,0.00,Weather View 32 v70,2013-03-12 04:50:00,
2013-03-11 20:55:00,30.0,17.8,30.43,NNE,22,0.0,0.0,60,0.00,,,0.00,Weather View 32 v70,2013-03-12 04:55:00,
2013-03-11 21:00:00,29.7,17.5,30.43,NNE,22,0.0,0.0,60,0.00,,,0.00,Weather View 32 v70,2013-03-12 05:00:00,
2013-03-11 21:05:00,29.5,17.3,30.42,NNE,22,0.0,0.0,60,0.00,,,0.00,Weather View 32 v70,2013-03-12 05:05:00,
2013-03-11 21:10:00,29.7,17.5,30.42,NNE,22,0.0,0.0,60,0.00,,,0.00,Weather View 32 v70,2013-03-12 05:10:00,
2013-03-11 21:15:00,29.5,17.3,30.42,NNE,22,0.0,0.0,60,0.00,,,0.00,Weather View 32 v70,2013-03-12 05:15:00,
2013-03-11 21:20:00,29.7,17.5,30.42,NNE,22,0.0,0.0,60,0.00,,,0.00,Weather View 32 v70,2013-03-12 05:20:00,
2013-03-11 21:25:00,29.3,17.1,30.42,NNE,22,0.0,0.0,60,0.00,,,0.00,Weather View 32 v70,2013-03-12 05:25:00,
2013-03-11 21:30:00,28.9,17.2,30.42,NNE,22,0.0,0.0,61,0.00,,,0.00,Weather View 32 v70,2013-03-12 05:30:00,
2013-03-11 21:35:00,28.4,17.0,30.42,NNE,22,0.0,0.0,62,0.00,,,0.00,Weather View 32 v70,2013-03-12 05:35:00,
2013-03-11 21:40:00,28.2,16.9,30.42,NNE,22,0.0,0.0,62,0.00,,,0.00,Weather View 32 v70,2013-03-12 05:40:00,
2013-03-11 21:45:00,28.4,17.4,30.41,NNE,22,0.0,0.0,63,0.00,,,0.00,Weather View 32 v70,2013-03-12 05:45:00,
2013-03-11 21:50:00,28.4,17.0,30.41,NNE,22,0.0,0.0,62,0.00,,,0.00,Weather View 32 v70,2013-03-12 05:50:00,
2013-03-11 21:55:00,28.6,17.2,30.41,NNE,22,0.0,0.0,62,0.00,,,0.00,Weather View 32 v70,2013-03-12 05:55:00,
2013-03-11 22:00:00,28.9,17.2,30.41,NNE,22,0.0,0.0,61,0.00,,,0.00,Weather View 32 v70,2013-03-12 06:00:00,
2013-03-11 22:05:00,28.9,17.2,30.42,NNE,22,0.0,0.0,61,0.00,,,0.00,Weather View 32 v70,2013-03-12 06:05:00,
2013-03-11 22:10:00,28.9,17.2,30.42,NNE,22,0.0,0.0,61,0.00,,,0.00,Weather View 32 v70,2013-03-12 06:10:00,
2013-03-11 22:15:00,28.6,16.8,30.42,NNE,22,0.0,0.0,61,0.00,,,0.00,Weather View 32 v70,2013-03-12 06:15:00,
2013-03-11 22:20:00,28.6,16.8,30.42,NNE,22,0.0,0.0,61,0.00,,,0.00,Weather View 32 v70,2013-03-12 06:20:00,
2013-03-11 22:25:00,28.9,17.2,30.41,NNE,22,0.0,0.0,61,0.00,,,0.00,Weather View 32 v70,2013-03-12 06:25:00,
2013-03-11 22:30:00,28.9,17.2,30.41,NNE,22,0.0,0.0,61,0.00,,,0.00,Weather View 32 v70,2013-03-12 06:30:00,
2013-03-11 22:35:00,29.1,17.0,30.41,NNE,22,0.0,0.0,60,0.00,,,0.00,Weather View 32 v70,2013-03-12 06:35:00,
2013-03-11 22:40:00,29.3,17.1,30.41,NNE,22,0.0,0.0,60,0.00,,,0.00,Weather View 32 v70,2013-03-12 06:40:00,
2013-03-11 22:45:00,29.7,17.5,30.41,NNE,22,0.0,0.0,60,0.00,,,0.00,Weather View 32 v70,2013-03-12 06:45:00,
2013-03-11 22:50:00,29.7,17.1,30.41,NNE,22,0.0,0.0,59,0.00,,,0.00,Weather View 32 v70,2013-03-12 06:50:00,
2013-03-11 22:55:00,29.7,16.7,30.41,NNE,22,0.0,0.0,58,0.00,,,0.00,Weather View 32 v70,2013-03-12 06:55:00,
2013-03-11 23:00:00,29.7,17.1,30.41,NNE,22,0.0,0.0,59,0.00,,,0.00,Weather View 32 v70,2013-03-12 07:00:00,
2013-03-11 23:05:00,29.7,17.1,30.41,NNE,22,0.0,0.0,59,0.00,,,0.00,Weather View 32 v70,2013-03-12 07:05:00,
2013-03-11 23:10:00,29.7,17.1,30.41,NNE,22,0.0,0.0,59,0.00,,,0.00,Weather View 32 v70,2013-03-12 07:10:00,
2013-03-11 23:15:00,29.5,16.9,30.41,NNE,22,0.0,0.0,59,0.00,,,0.00,Weather View 32 v70,2013-03-12 07:15:00,
2013-03-11 23:20:00,29.5,16.9,30.41,NNE,22,0.0,0.0,59,0.00,,,0.00,Weather View 32 v70,2013-03-12 07:20:00,
2013-03-11 23:25:00,29.3,16.7,30.41,NNE,22,0.0,0.0,59,0.00,,,0.00,Weather View 32 v70,2013-03-12 07:25:00,
2013-03-11 23:30:00,29.3,16.7,30.41,NNE,22,0.0,0.0,59,0.00,,,0.00,Weather View 32 v70,2013-03-12 07:30:00,
2013-03-11 23:35:00,29.7,17.1,30.41,NNE,22,0.0,0.0,59,0.00,,,0.00,Weather View 32 v70,2013-03-12 07:35:00,
2013-03-11 23:40:00,29.5,16.5,30.41,NNE,22,0.0,0.0,58,0.00,,,0.00,Weather View 32 v70,2013-03-12 07:40:00,
2013-03-11 23:45:00,29.3,16.3,30.41,NNE,22,0.0,0.0,58,0.00,,,0.00,Weather View 32 v70,2013-03-12 07:45:00,
2013-03-11 23:50:00,29.3,15.9,30.41,NNE,22,0.0,0.0,57,0.00,,,0.00,Weather View 32 v70,2013-03-12 07:50:00,
2013-03-11 23:55:00,29.3,15.5,30.41,NNE,22,0.0,0.0,56,0.00,,,0.00,Weather View 32 v70,2013-03-12 07:55:00,